sensor_id;sensor_type;location;lat;lon;timestamp;P1;durP1;ratioP1;P2;durP2;ratioP2
22193;SDS011;11262;50.308;9.270;2022-07-17T00:02:12;9.50;;;2.80;;
22193;SDS011;11262;50.308;9.270;2022-07-17T00:04:38;6.03;;;3.00;;
22193;SDS011;11262;50.308;9.270;2022-07-17T00:07:04;9.73;;;2.90;;
22193;SDS011;11262;50.308;9.270;2022-07-17T00:09:29;6.43;;;2.53;;
22193;SDS011;11262;50.308;9.270;2022-07-17T00:11:55;6.30;;;2.70;;
22193;SDS011;11262;50.308;9.270;2022-07-17T00:14:20;4.57;;;2.77;;
22193;SDS011;11262;50.308;9.270;2022-07-17T00:16:46;7.33;;;2.80;;
22193;SDS011;11262;50.308;9.270;2022-07-17T00:19:12;3.10;;;2.80;;
22193;SDS011;11262;50.308;9.270;2022-07-17T00:21:37;5.03;;;2.63;;
22193;SDS011;11262;50.308;9.270;2022-07-17T00:24:03;6.13;;;2.93;;
22193;SDS011;11262;50.308;9.270;2022-07-17T00:26:31;9.13;;;2.77;;
22193;SDS011;11262;50.308;9.270;2022-07-17T00:28:57;5.47;;;2.73;;
22193;SDS011;11262;50.308;9.270;2022-07-17T00:31:22;6.07;;;3.03;;
22193;SDS011;11262;50.308;9.270;2022-07-17T00:33:48;8.23;;;3.07;;
22193;SDS011;11262;50.308;9.270;2022-07-17T00:36:14;4.93;;;2.77;;
22193;SDS011;11262;50.308;9.270;2022-07-17T00:38:39;5.23;;;3.00;;
22193;SDS011;11262;50.308;9.270;2022-07-17T00:41:05;6.23;;;2.87;;
22193;SDS011;11262;50.308;9.270;2022-07-17T00:43:31;4.70;;;2.70;;
22193;SDS011;11262;50.308;9.270;2022-07-17T00:45:57;7.10;;;2.80;;
22193;SDS011;11262;50.308;9.270;2022-07-17T00:48:24;5.17;;;2.70;;
22193;SDS011;11262;50.308;9.270;2022-07-17T00:50:50;3.50;;;2.70;;
22193;SDS011;11262;50.308;9.270;2022-07-17T00:53:16;6.23;;;2.80;;
22193;SDS011;11262;50.308;9.270;2022-07-17T00:55:42;3.27;;;2.73;;
22193;SDS011;11262;50.308;9.270;2022-07-17T00:58:16;6.63;;;2.83;;
22193;SDS011;11262;50.308;9.270;2022-07-17T01:00:43;6.50;;;2.70;;
22193;SDS011;11262;50.308;9.270;2022-07-17T01:03:09;7.70;;;2.97;;
22193;SDS011;11262;50.308;9.270;2022-07-17T01:05:35;5.50;;;2.70;;
22193;SDS011;11262;50.308;9.270;2022-07-17T01:08:01;5.87;;;3.00;;
22193;SDS011;11262;50.308;9.270;2022-07-17T01:10:26;7.37;;;3.00;;
22193;SDS011;11262;50.308;9.270;2022-07-17T01:12:52;4.07;;;2.80;;
22193;SDS011;11262;50.308;9.270;2022-07-17T01:15:18;10.33;;;3.00;;
22193;SDS011;11262;50.308;9.270;2022-07-17T01:17:43;4.60;;;2.80;;
22193;SDS011;11262;50.308;9.270;2022-07-17T01:20:09;4.63;;;2.67;;
22193;SDS011;11262;50.308;9.270;2022-07-17T01:22:54;5.93;;;3.10;;
22193;SDS011;11262;50.308;9.270;2022-07-17T01:25:21;4.50;;;2.80;;
22193;SDS011;11262;50.308;9.270;2022-07-17T01:27:47;6.03;;;3.07;;
22193;SDS011;11262;50.308;9.270;2022-07-17T01:30:13;7.00;;;3.10;;
22193;SDS011;11262;50.308;9.270;2022-07-17T01:32:39;5.00;;;2.90;;
22193;SDS011;11262;50.308;9.270;2022-07-17T01:35:07;5.27;;;2.93;;
22193;SDS011;11262;50.308;9.270;2022-07-17T01:37:34;4.00;;;2.80;;
22193;SDS011;11262;50.308;9.270;2022-07-17T01:40:00;4.60;;;2.90;;
22193;SDS011;11262;50.308;9.270;2022-07-17T01:42:26;6.67;;;3.10;;
22193;SDS011;11262;50.308;9.270;2022-07-17T01:44:53;4.97;;;3.53;;
22193;SDS011;11262;50.308;9.270;2022-07-17T01:47:20;3.87;;;3.00;;
22193;SDS011;11262;50.308;9.270;2022-07-17T01:49:46;5.60;;;3.23;;
22193;SDS011;11262;50.308;9.270;2022-07-17T01:52:14;6.20;;;3.00;;
22193;SDS011;11262;50.308;9.270;2022-07-17T01:54:40;6.77;;;3.17;;
22193;SDS011;11262;50.308;9.270;2022-07-17T01:57:07;3.37;;;2.70;;
22193;SDS011;11262;50.308;9.270;2022-07-17T01:59:40;3.70;;;3.20;;
22193;SDS011;11262;50.308;9.270;2022-07-17T02:02:06;4.60;;;3.20;;
22193;SDS011;11262;50.308;9.270;2022-07-17T02:04:34;8.90;;;2.80;;
22193;SDS011;11262;50.308;9.270;2022-07-17T02:07:00;6.67;;;2.90;;
22193;SDS011;11262;50.308;9.270;2022-07-17T02:09:26;7.90;;;3.33;;
22193;SDS011;11262;50.308;9.270;2022-07-17T02:11:52;3.33;;;3.03;;
22193;SDS011;11262;50.308;9.270;2022-07-17T02:14:18;9.27;;;3.30;;
22193;SDS011;11262;50.308;9.270;2022-07-17T02:16:44;5.03;;;3.10;;
22193;SDS011;11262;50.308;9.270;2022-07-17T02:19:09;7.77;;;3.50;;
22193;SDS011;11262;50.308;9.270;2022-07-17T02:21:35;4.70;;;3.13;;
22193;SDS011;11262;50.308;9.270;2022-07-17T02:24:01;7.43;;;3.40;;
22193;SDS011;11262;50.308;9.270;2022-07-17T02:26:27;6.80;;;3.30;;
22193;SDS011;11262;50.308;9.270;2022-07-17T02:28:52;7.97;;;3.23;;
22193;SDS011;11262;50.308;9.270;2022-07-17T02:31:19;7.70;;;3.33;;
22193;SDS011;11262;50.308;9.270;2022-07-17T02:33:44;9.03;;;3.30;;
22193;SDS011;11262;50.308;9.270;2022-07-17T02:36:10;3.67;;;3.13;;
22193;SDS011;11262;50.308;9.270;2022-07-17T02:38:35;3.40;;;3.10;;
22193;SDS011;11262;50.308;9.270;2022-07-17T02:41:01;5.47;;;3.57;;
22193;SDS011;11262;50.308;9.270;2022-07-17T02:43:26;5.07;;;3.40;;
22193;SDS011;11262;50.308;9.270;2022-07-17T02:45:52;6.80;;;3.27;;
22193;SDS011;11262;50.308;9.270;2022-07-17T02:48:18;4.37;;;3.37;;
22193;SDS011;11262;50.308;9.270;2022-07-17T02:50:43;11.57;;;3.97;;
22193;SDS011;11262;50.308;9.270;2022-07-17T02:53:09;4.70;;;3.60;;
22193;SDS011;11262;50.308;9.270;2022-07-17T02:55:34;7.60;;;3.20;;
22193;SDS011;11262;50.308;9.270;2022-07-17T02:58:00;8.03;;;3.73;;
22193;SDS011;11262;50.308;9.270;2022-07-17T03:00:25;6.27;;;3.80;;
22193;SDS011;11262;50.308;9.270;2022-07-17T03:02:52;6.10;;;3.20;;
22193;SDS011;11262;50.308;9.270;2022-07-17T03:05:17;6.53;;;3.10;;
22193;SDS011;11262;50.308;9.270;2022-07-17T03:07:43;9.47;;;3.40;;
22193;SDS011;11262;50.308;9.270;2022-07-17T03:10:09;9.70;;;3.40;;
22193;SDS011;11262;50.308;9.270;2022-07-17T03:12:35;11.73;;;3.37;;
22193;SDS011;11262;50.308;9.270;2022-07-17T03:15:01;6.63;;;3.27;;
22193;SDS011;11262;50.308;9.270;2022-07-17T03:17:27;4.63;;;3.30;;
22193;SDS011;11262;50.308;9.270;2022-07-17T03:19:53;6.70;;;3.50;;
22193;SDS011;11262;50.308;9.270;2022-07-17T03:22:18;5.63;;;3.27;;
22193;SDS011;11262;50.308;9.270;2022-07-17T03:24:44;7.97;;;3.60;;
22193;SDS011;11262;50.308;9.270;2022-07-17T03:27:10;6.97;;;3.50;;
22193;SDS011;11262;50.308;9.270;2022-07-17T03:29:35;5.37;;;3.33;;
22193;SDS011;11262;50.308;9.270;2022-07-17T03:32:01;6.03;;;3.60;;
22193;SDS011;11262;50.308;9.270;2022-07-17T03:34:27;6.10;;;3.33;;
22193;SDS011;11262;50.308;9.270;2022-07-17T03:36:52;4.40;;;3.03;;
22193;SDS011;11262;50.308;9.270;2022-07-17T03:39:18;7.53;;;3.60;;
22193;SDS011;11262;50.308;9.270;2022-07-17T03:41:43;8.07;;;3.60;;
22193;SDS011;11262;50.308;9.270;2022-07-17T03:44:09;6.20;;;3.33;;
22193;SDS011;11262;50.308;9.270;2022-07-17T03:46:35;6.60;;;3.53;;
22193;SDS011;11262;50.308;9.270;2022-07-17T03:49:00;4.97;;;3.33;;
22193;SDS011;11262;50.308;9.270;2022-07-17T03:51:26;9.03;;;3.20;;
22193;SDS011;11262;50.308;9.270;2022-07-17T03:53:52;5.93;;;3.23;;
22193;SDS011;11262;50.308;9.270;2022-07-17T03:56:18;5.63;;;2.90;;
22193;SDS011;11262;50.308;9.270;2022-07-17T03:58:44;5.87;;;3.40;;
22193;SDS011;11262;50.308;9.270;2022-07-17T04:01:09;6.50;;;3.27;;
22193;SDS011;11262;50.308;9.270;2022-07-17T04:03:35;10.53;;;3.43;;
22193;SDS011;11262;50.308;9.270;2022-07-17T04:06:01;5.10;;;3.50;;
22193;SDS011;11262;50.308;9.270;2022-07-17T04:08:27;5.27;;;3.27;;
22193;SDS011;11262;50.308;9.270;2022-07-17T04:10:52;4.80;;;3.23;;
22193;SDS011;11262;50.308;9.270;2022-07-17T04:13:18;7.80;;;3.00;;
22193;SDS011;11262;50.308;9.270;2022-07-17T04:15:43;4.07;;;3.17;;
22193;SDS011;11262;50.308;9.270;2022-07-17T04:18:20;4.53;;;3.00;;
22193;SDS011;11262;50.308;9.270;2022-07-17T04:20:47;8.13;;;3.60;;
22193;SDS011;11262;50.308;9.270;2022-07-17T04:23:13;9.83;;;3.53;;
22193;SDS011;11262;50.308;9.270;2022-07-17T04:25:39;5.37;;;3.40;;
22193;SDS011;11262;50.308;9.270;2022-07-17T04:28:05;4.60;;;3.20;;
22193;SDS011;11262;50.308;9.270;2022-07-17T04:30:32;10.33;;;3.27;;
22193;SDS011;11262;50.308;9.270;2022-07-17T04:32:58;7.47;;;3.30;;
22193;SDS011;11262;50.308;9.270;2022-07-17T04:35:23;7.53;;;3.57;;
22193;SDS011;11262;50.308;9.270;2022-07-17T04:37:49;8.57;;;3.27;;
22193;SDS011;11262;50.308;9.270;2022-07-17T04:40:14;7.70;;;3.37;;
22193;SDS011;11262;50.308;9.270;2022-07-17T04:42:40;5.27;;;2.90;;
22193;SDS011;11262;50.308;9.270;2022-07-17T04:45:06;5.37;;;3.50;;
22193;SDS011;11262;50.308;9.270;2022-07-17T04:47:33;5.50;;;3.03;;
22193;SDS011;11262;50.308;9.270;2022-07-17T04:49:59;5.90;;;3.77;;
22193;SDS011;11262;50.308;9.270;2022-07-17T04:52:25;5.53;;;3.20;;
22193;SDS011;11262;50.308;9.270;2022-07-17T04:54:50;6.93;;;3.20;;
22193;SDS011;11262;50.308;9.270;2022-07-17T04:57:16;9.30;;;3.27;;
22193;SDS011;11262;50.308;9.270;2022-07-17T04:59:41;4.43;;;3.13;;
22193;SDS011;11262;50.308;9.270;2022-07-17T05:02:07;6.03;;;3.60;;
22193;SDS011;11262;50.308;9.270;2022-07-17T05:04:33;9.50;;;3.47;;
22193;SDS011;11262;50.308;9.270;2022-07-17T05:06:58;8.00;;;3.30;;
22193;SDS011;11262;50.308;9.270;2022-07-17T05:09:24;11.83;;;3.50;;
22193;SDS011;11262;50.308;9.270;2022-07-17T05:11:50;7.47;;;3.47;;
22193;SDS011;11262;50.308;9.270;2022-07-17T05:14:15;12.50;;;3.30;;
22193;SDS011;11262;50.308;9.270;2022-07-17T05:16:41;6.83;;;3.20;;
22193;SDS011;11262;50.308;9.270;2022-07-17T05:19:07;7.07;;;3.40;;
22193;SDS011;11262;50.308;9.270;2022-07-17T05:21:32;6.83;;;3.40;;
22193;SDS011;11262;50.308;9.270;2022-07-17T05:23:58;6.17;;;3.23;;
22193;SDS011;11262;50.308;9.270;2022-07-17T05:26:24;4.00;;;2.87;;
22193;SDS011;11262;50.308;9.270;2022-07-17T05:28:50;14.60;;;3.40;;
22193;SDS011;11262;50.308;9.270;2022-07-17T05:31:15;4.60;;;3.13;;
22193;SDS011;11262;50.308;9.270;2022-07-17T05:33:41;5.50;;;3.03;;
22193;SDS011;11262;50.308;9.270;2022-07-17T05:36:06;5.03;;;2.80;;
22193;SDS011;11262;50.308;9.270;2022-07-17T05:38:32;5.47;;;3.10;;
22193;SDS011;11262;50.308;9.270;2022-07-17T05:40:58;6.40;;;2.90;;
22193;SDS011;11262;50.308;9.270;2022-07-17T05:43:24;5.77;;;3.00;;
22193;SDS011;11262;50.308;9.270;2022-07-17T05:45:52;6.70;;;3.17;;
22193;SDS011;11262;50.308;9.270;2022-07-17T05:48:19;8.33;;;3.00;;
22193;SDS011;11262;50.308;9.270;2022-07-17T05:50:45;4.53;;;3.00;;
22193;SDS011;11262;50.308;9.270;2022-07-17T05:53:10;4.97;;;2.80;;
22193;SDS011;11262;50.308;9.270;2022-07-17T05:55:36;6.80;;;2.83;;
22193;SDS011;11262;50.308;9.270;2022-07-17T05:58:02;3.20;;;2.90;;
22193;SDS011;11262;50.308;9.270;2022-07-17T06:00:27;7.37;;;2.83;;
22193;SDS011;11262;50.308;9.270;2022-07-17T06:02:53;7.87;;;3.00;;
22193;SDS011;11262;50.308;9.270;2022-07-17T06:05:18;6.07;;;2.80;;
22193;SDS011;11262;50.308;9.270;2022-07-17T06:07:44;7.97;;;2.80;;
22193;SDS011;11262;50.308;9.270;2022-07-17T06:10:10;5.30;;;3.30;;
22193;SDS011;11262;50.308;9.270;2022-07-17T06:12:35;3.87;;;2.83;;
22193;SDS011;11262;50.308;9.270;2022-07-17T06:15:01;5.30;;;3.10;;
22193;SDS011;11262;50.308;9.270;2022-07-17T06:17:27;5.83;;;2.70;;
22193;SDS011;11262;50.308;9.270;2022-07-17T06:19:53;9.33;;;3.00;;
22193;SDS011;11262;50.308;9.270;2022-07-17T06:22:19;3.97;;;3.07;;
22193;SDS011;11262;50.308;9.270;2022-07-17T06:24:45;4.63;;;2.90;;
22193;SDS011;11262;50.308;9.270;2022-07-17T06:27:11;7.77;;;2.90;;
22193;SDS011;11262;50.308;9.270;2022-07-17T06:29:37;6.63;;;2.73;;
22193;SDS011;11262;50.308;9.270;2022-07-17T06:32:03;8.67;;;3.07;;
22193;SDS011;11262;50.308;9.270;2022-07-17T06:34:29;8.13;;;2.73;;
22193;SDS011;11262;50.308;9.270;2022-07-17T06:36:54;4.63;;;2.77;;
22193;SDS011;11262;50.308;9.270;2022-07-17T06:39:20;5.77;;;2.60;;
22193;SDS011;11262;50.308;9.270;2022-07-17T06:41:45;6.80;;;2.93;;
22193;SDS011;11262;50.308;9.270;2022-07-17T06:44:11;7.00;;;2.83;;
22193;SDS011;11262;50.308;9.270;2022-07-17T06:46:37;7.97;;;3.03;;
22193;SDS011;11262;50.308;9.270;2022-07-17T06:49:02;7.30;;;2.80;;
22193;SDS011;11262;50.308;9.270;2022-07-17T06:51:28;6.57;;;2.70;;
22193;SDS011;11262;50.308;9.270;2022-07-17T06:53:53;10.03;;;3.03;;
22193;SDS011;11262;50.308;9.270;2022-07-17T06:56:19;9.57;;;2.60;;
22193;SDS011;11262;50.308;9.270;2022-07-17T06:58:44;6.10;;;3.07;;
22193;SDS011;11262;50.308;9.270;2022-07-17T07:01:10;7.80;;;3.00;;
22193;SDS011;11262;50.308;9.270;2022-07-17T07:03:36;3.40;;;2.47;;
22193;SDS011;11262;50.308;9.270;2022-07-17T07:06:01;8.57;;;2.50;;
22193;SDS011;11262;50.308;9.270;2022-07-17T07:08:27;4.50;;;2.50;;
22193;SDS011;11262;50.308;9.270;2022-07-17T07:10:53;3.33;;;2.47;;
22193;SDS011;11262;50.308;9.270;2022-07-17T07:13:18;6.77;;;2.93;;
22193;SDS011;11262;50.308;9.270;2022-07-17T07:15:44;8.67;;;2.80;;
22193;SDS011;11262;50.308;9.270;2022-07-17T07:18:09;3.60;;;2.40;;
22193;SDS011;11262;50.308;9.270;2022-07-17T07:20:35;8.90;;;2.40;;
22193;SDS011;11262;50.308;9.270;2022-07-17T07:23:01;6.00;;;2.93;;
22193;SDS011;11262;50.308;9.270;2022-07-17T07:25:26;10.47;;;2.70;;
22193;SDS011;11262;50.308;9.270;2022-07-17T07:27:52;6.00;;;2.80;;
22193;SDS011;11262;50.308;9.270;2022-07-17T07:30:17;7.37;;;2.70;;
22193;SDS011;11262;50.308;9.270;2022-07-17T07:32:43;9.10;;;2.50;;
22193;SDS011;11262;50.308;9.270;2022-07-17T07:35:09;5.80;;;2.60;;
22193;SDS011;11262;50.308;9.270;2022-07-17T07:37:35;7.67;;;2.67;;
22193;SDS011;11262;50.308;9.270;2022-07-17T07:40:01;6.30;;;2.50;;
22193;SDS011;11262;50.308;9.270;2022-07-17T07:42:28;8.30;;;2.90;;
22193;SDS011;11262;50.308;9.270;2022-07-17T07:44:54;5.50;;;2.77;;
22193;SDS011;11262;50.308;9.270;2022-07-17T07:47:20;9.77;;;2.80;;
22193;SDS011;11262;50.308;9.270;2022-07-17T07:49:45;5.13;;;2.37;;
22193;SDS011;11262;50.308;9.270;2022-07-17T07:52:11;6.53;;;2.57;;
22193;SDS011;11262;50.308;9.270;2022-07-17T07:54:37;8.43;;;2.30;;
22193;SDS011;11262;50.308;9.270;2022-07-17T07:57:03;6.67;;;2.70;;
22193;SDS011;11262;50.308;9.270;2022-07-17T07:59:29;10.60;;;2.60;;
22193;SDS011;11262;50.308;9.270;2022-07-17T08:01:58;5.37;;;2.60;;
22193;SDS011;11262;50.308;9.270;2022-07-17T08:04:24;3.10;;;2.37;;
22193;SDS011;11262;50.308;9.270;2022-07-17T08:06:50;8.13;;;2.50;;
22193;SDS011;11262;50.308;9.270;2022-07-17T08:09:16;5.07;;;2.17;;
22193;SDS011;11262;50.308;9.270;2022-07-17T08:11:41;3.83;;;2.30;;
22193;SDS011;11262;50.308;9.270;2022-07-17T08:14:07;6.20;;;2.30;;
22193;SDS011;11262;50.308;9.270;2022-07-17T08:16:33;5.60;;;2.27;;
22193;SDS011;11262;50.308;9.270;2022-07-17T08:18:58;5.00;;;2.33;;
22193;SDS011;11262;50.308;9.270;2022-07-17T08:21:24;4.80;;;2.00;;
22193;SDS011;11262;50.308;9.270;2022-07-17T08:23:50;5.20;;;2.50;;
22193;SDS011;11262;50.308;9.270;2022-07-17T08:26:15;5.67;;;2.27;;
22193;SDS011;11262;50.308;9.270;2022-07-17T08:28:41;4.37;;;2.10;;
22193;SDS011;11262;50.308;9.270;2022-07-17T08:31:06;2.37;;;2.00;;
22193;SDS011;11262;50.308;9.270;2022-07-17T08:33:32;5.07;;;2.30;;
22193;SDS011;11262;50.308;9.270;2022-07-17T08:35:58;5.53;;;2.30;;
22193;SDS011;11262;50.308;9.270;2022-07-17T08:38:23;6.93;;;2.27;;
22193;SDS011;11262;50.308;9.270;2022-07-17T08:40:49;8.13;;;2.30;;
22193;SDS011;11262;50.308;9.270;2022-07-17T08:43:17;6.47;;;2.60;;
22193;SDS011;11262;50.308;9.270;2022-07-17T08:45:43;4.27;;;2.13;;
22193;SDS011;11262;50.308;9.270;2022-07-17T08:48:12;4.00;;;2.30;;
22193;SDS011;11262;50.308;9.270;2022-07-17T08:50:39;3.80;;;2.17;;
22193;SDS011;11262;50.308;9.270;2022-07-17T08:53:05;2.13;;;1.80;;
22193;SDS011;11262;50.308;9.270;2022-07-17T08:55:31;3.90;;;1.80;;
22193;SDS011;11262;50.308;9.270;2022-07-17T08:57:57;7.70;;;2.20;;
22193;SDS011;11262;50.308;9.270;2022-07-17T09:00:24;7.20;;;2.07;;
22193;SDS011;11262;50.308;9.270;2022-07-17T09:05:22;9.07;;;2.30;;
22193;SDS011;11262;50.308;9.270;2022-07-17T09:07:49;5.00;;;1.90;;
22193;SDS011;11262;50.308;9.270;2022-07-17T09:10:14;5.50;;;2.00;;
22193;SDS011;11262;50.308;9.270;2022-07-17T09:12:40;5.60;;;2.07;;
22193;SDS011;11262;50.308;9.270;2022-07-17T09:15:19;3.17;;;1.90;;
22193;SDS011;11262;50.308;9.270;2022-07-17T09:17:51;2.60;;;1.80;;
22193;SDS011;11262;50.308;9.270;2022-07-17T09:20:19;4.53;;;1.93;;
22193;SDS011;11262;50.308;9.270;2022-07-17T09:22:55;6.50;;;2.10;;
22193;SDS011;11262;50.308;9.270;2022-07-17T09:25:32;7.20;;;2.00;;
22193;SDS011;11262;50.308;9.270;2022-07-17T09:28:09;6.27;;;2.03;;
22193;SDS011;11262;50.308;9.270;2022-07-17T09:30:37;6.10;;;1.97;;
22193;SDS011;11262;50.308;9.270;2022-07-17T09:33:15;5.43;;;1.80;;
22193;SDS011;11262;50.308;9.270;2022-07-17T09:35:56;5.83;;;1.93;;
22193;SDS011;11262;50.308;9.270;2022-07-17T09:38:42;5.93;;;1.77;;
22193;SDS011;11262;50.308;9.270;2022-07-17T09:41:13;4.70;;;2.03;;
22193;SDS011;11262;50.308;9.270;2022-07-17T09:46:14;3.10;;;1.83;;
22193;SDS011;11262;50.308;9.270;2022-07-17T09:48:43;6.40;;;2.03;;
22193;SDS011;11262;50.308;9.270;2022-07-17T09:51:16;3.57;;;1.83;;
22193;SDS011;11262;50.308;9.270;2022-07-17T09:53:48;6.00;;;1.90;;
22193;SDS011;11262;50.308;9.270;2022-07-17T09:56:15;8.27;;;1.87;;
22193;SDS011;11262;50.308;9.270;2022-07-17T09:58:43;2.87;;;1.97;;
22193;SDS011;11262;50.308;9.270;2022-07-17T10:01:13;7.40;;;1.90;;
22193;SDS011;11262;50.308;9.270;2022-07-17T10:03:40;4.23;;;1.83;;
22193;SDS011;11262;50.308;9.270;2022-07-17T10:06:07;2.27;;;1.50;;
22193;SDS011;11262;50.308;9.270;2022-07-17T10:08:34;4.50;;;1.90;;
22193;SDS011;11262;50.308;9.270;2022-07-17T10:11:02;4.00;;;1.70;;
22193;SDS011;11262;50.308;9.270;2022-07-17T10:13:32;4.40;;;1.77;;
22193;SDS011;11262;50.308;9.270;2022-07-17T10:15:57;1.97;;;1.73;;
22193;SDS011;11262;50.308;9.270;2022-07-17T10:18:34;3.10;;;1.83;;
22193;SDS011;11262;50.308;9.270;2022-07-17T10:23:34;2.43;;;1.97;;
22193;SDS011;11262;50.308;9.270;2022-07-17T10:26:00;5.47;;;1.90;;
22193;SDS011;11262;50.308;9.270;2022-07-17T10:28:42;3.57;;;1.80;;
22193;SDS011;11262;50.308;9.270;2022-07-17T10:31:09;7.37;;;2.03;;
22193;SDS011;11262;50.308;9.270;2022-07-17T10:33:53;4.73;;;1.90;;
22193;SDS011;11262;50.308;9.270;2022-07-17T10:36:36;3.57;;;1.70;;
22193;SDS011;11262;50.308;9.270;2022-07-17T10:39:13;4.03;;;1.50;;
22193;SDS011;11262;50.308;9.270;2022-07-17T10:41:41;5.00;;;1.73;;
22193;SDS011;11262;50.308;9.270;2022-07-17T10:44:08;9.07;;;2.03;;
22193;SDS011;11262;50.308;9.270;2022-07-17T10:46:34;2.50;;;2.00;;
22193;SDS011;11262;50.308;9.270;2022-07-17T10:49:00;3.43;;;1.40;;
22193;SDS011;11262;50.308;9.270;2022-07-17T10:51:29;3.03;;;1.60;;
22193;SDS011;11262;50.308;9.270;2022-07-17T10:53:55;2.73;;;1.67;;
22193;SDS011;11262;50.308;9.270;2022-07-17T10:56:24;4.93;;;1.90;;
22193;SDS011;11262;50.308;9.270;2022-07-17T10:58:50;2.13;;;1.70;;
22193;SDS011;11262;50.308;9.270;2022-07-17T11:01:17;3.70;;;1.80;;
22193;SDS011;11262;50.308;9.270;2022-07-17T11:03:48;4.20;;;1.73;;
22193;SDS011;11262;50.308;9.270;2022-07-17T11:11:37;6.63;;;1.80;;
22193;SDS011;11262;50.308;9.270;2022-07-17T11:14:08;2.67;;;1.50;;
22193;SDS011;11262;50.308;9.270;2022-07-17T11:16:54;5.63;;;1.83;;
22193;SDS011;11262;50.308;9.270;2022-07-17T11:19:28;5.77;;;2.10;;
22193;SDS011;11262;50.308;9.270;2022-07-17T11:21:59;4.40;;;1.70;;
22193;SDS011;11262;50.308;9.270;2022-07-17T11:24:42;4.70;;;1.70;;
22193;SDS011;11262;50.308;9.270;2022-07-17T11:27:09;3.70;;;1.60;;
22193;SDS011;11262;50.308;9.270;2022-07-17T11:29:39;5.73;;;1.80;;
22193;SDS011;11262;50.308;9.270;2022-07-17T11:32:06;1.93;;;1.60;;
22193;SDS011;11262;50.308;9.270;2022-07-17T11:34:32;7.87;;;2.00;;
22193;SDS011;11262;50.308;9.270;2022-07-17T11:37:01;3.27;;;1.70;;
22193;SDS011;11262;50.308;9.270;2022-07-17T11:39:39;2.43;;;1.57;;
22193;SDS011;11262;50.308;9.270;2022-07-17T11:42:07;3.47;;;1.90;;
22193;SDS011;11262;50.308;9.270;2022-07-17T11:44:34;4.00;;;1.73;;
22193;SDS011;11262;50.308;9.270;2022-07-17T11:47:00;5.80;;;1.87;;
22193;SDS011;11262;50.308;9.270;2022-07-17T11:49:28;2.20;;;1.63;;
22193;SDS011;11262;50.308;9.270;2022-07-17T11:52:05;4.30;;;1.87;;
22193;SDS011;11262;50.308;9.270;2022-07-17T11:54:43;3.93;;;1.60;;
22193;SDS011;11262;50.308;9.270;2022-07-17T11:57:13;3.30;;;1.80;;
22193;SDS011;11262;50.308;9.270;2022-07-17T11:59:40;7.43;;;1.80;;
22193;SDS011;11262;50.308;9.270;2022-07-17T12:02:09;3.13;;;1.57;;
22193;SDS011;11262;50.308;9.270;2022-07-17T12:04:55;5.37;;;1.60;;
22193;SDS011;11262;50.308;9.270;2022-07-17T12:07:23;3.60;;;1.67;;
22193;SDS011;11262;50.308;9.270;2022-07-17T12:09:52;2.67;;;1.77;;
22193;SDS011;11262;50.308;9.270;2022-07-17T12:12:22;5.43;;;1.70;;
22193;SDS011;11262;50.308;9.270;2022-07-17T12:14:51;4.10;;;1.70;;
22193;SDS011;11262;50.308;9.270;2022-07-17T12:17:18;4.53;;;1.73;;
22193;SDS011;11262;50.308;9.270;2022-07-17T12:19:43;4.77;;;1.80;;
22193;SDS011;11262;50.308;9.270;2022-07-17T12:22:09;4.50;;;1.83;;
22193;SDS011;11262;50.308;9.270;2022-07-17T12:24:39;10.43;;;1.47;;
22193;SDS011;11262;50.308;9.270;2022-07-17T12:27:07;4.53;;;2.13;;
22193;SDS011;11262;50.308;9.270;2022-07-17T12:29:35;4.40;;;1.70;;
22193;SDS011;11262;50.308;9.270;2022-07-17T12:32:13;4.60;;;1.70;;
22193;SDS011;11262;50.308;9.270;2022-07-17T12:34:44;3.67;;;1.77;;
22193;SDS011;11262;50.308;9.270;2022-07-17T12:37:21;7.27;;;1.63;;
22193;SDS011;11262;50.308;9.270;2022-07-17T12:39:47;3.13;;;1.60;;
22193;SDS011;11262;50.308;9.270;2022-07-17T12:42:14;3.10;;;1.63;;
22193;SDS011;11262;50.308;9.270;2022-07-17T12:44:40;5.70;;;1.60;;
22193;SDS011;11262;50.308;9.270;2022-07-17T12:47:10;4.17;;;1.67;;
22193;SDS011;11262;50.308;9.270;2022-07-17T12:49:36;1.87;;;1.37;;
22193;SDS011;11262;50.308;9.270;2022-07-17T12:52:02;3.50;;;1.60;;
22193;SDS011;11262;50.308;9.270;2022-07-17T12:54:28;3.90;;;1.70;;
22193;SDS011;11262;50.308;9.270;2022-07-17T12:56:54;3.03;;;1.67;;
22193;SDS011;11262;50.308;9.270;2022-07-17T12:59:20;2.77;;;1.47;;
22193;SDS011;11262;50.308;9.270;2022-07-17T13:01:46;2.90;;;1.70;;
22193;SDS011;11262;50.308;9.270;2022-07-17T13:04:12;6.63;;;1.90;;
22193;SDS011;11262;50.308;9.270;2022-07-17T13:06:38;7.37;;;1.70;;
22193;SDS011;11262;50.308;9.270;2022-07-17T13:09:03;4.80;;;1.77;;
22193;SDS011;11262;50.308;9.270;2022-07-17T13:11:29;3.63;;;1.50;;
22193;SDS011;11262;50.308;9.270;2022-07-17T13:13:55;4.87;;;1.60;;
22193;SDS011;11262;50.308;9.270;2022-07-17T13:16:20;5.83;;;1.53;;
22193;SDS011;11262;50.308;9.270;2022-07-17T13:18:47;1.97;;;1.40;;
22193;SDS011;11262;50.308;9.270;2022-07-17T13:21:12;3.97;;;1.37;;
22193;SDS011;11262;50.308;9.270;2022-07-17T13:23:38;4.43;;;1.77;;
22193;SDS011;11262;50.308;9.270;2022-07-17T13:26:04;6.80;;;1.70;;
22193;SDS011;11262;50.308;9.270;2022-07-17T13:28:30;3.63;;;1.53;;
22193;SDS011;11262;50.308;9.270;2022-07-17T13:30:56;3.90;;;1.73;;
22193;SDS011;11262;50.308;9.270;2022-07-17T13:33:22;3.77;;;1.80;;
22193;SDS011;11262;50.308;9.270;2022-07-17T13:35:48;4.37;;;1.70;;
22193;SDS011;11262;50.308;9.270;2022-07-17T13:38:14;7.13;;;1.63;;
22193;SDS011;11262;50.308;9.270;2022-07-17T13:40:40;2.43;;;1.63;;
22193;SDS011;11262;50.308;9.270;2022-07-17T13:43:06;6.17;;;1.97;;
22193;SDS011;11262;50.308;9.270;2022-07-17T13:45:32;4.03;;;1.20;;
22193;SDS011;11262;50.308;9.270;2022-07-17T13:47:58;4.33;;;1.53;;
22193;SDS011;11262;50.308;9.270;2022-07-17T13:50:24;3.20;;;1.50;;
22193;SDS011;11262;50.308;9.270;2022-07-17T13:52:50;7.40;;;1.70;;
22193;SDS011;11262;50.308;9.270;2022-07-17T13:55:16;5.27;;;1.50;;
22193;SDS011;11262;50.308;9.270;2022-07-17T13:57:41;3.10;;;1.70;;
22193;SDS011;11262;50.308;9.270;2022-07-17T14:02:40;3.53;;;1.50;;
22193;SDS011;11262;50.308;9.270;2022-07-17T14:05:07;5.00;;;1.63;;
22193;SDS011;11262;50.308;9.270;2022-07-17T14:07:33;5.57;;;1.67;;
22193;SDS011;11262;50.308;9.270;2022-07-17T14:09:59;4.23;;;1.70;;
22193;SDS011;11262;50.308;9.270;2022-07-17T14:12:25;3.27;;;1.57;;
22193;SDS011;11262;50.308;9.270;2022-07-17T14:14:51;4.17;;;1.50;;
22193;SDS011;11262;50.308;9.270;2022-07-17T14:17:17;3.80;;;1.90;;
22193;SDS011;11262;50.308;9.270;2022-07-17T14:19:45;5.67;;;1.90;;
22193;SDS011;11262;50.308;9.270;2022-07-17T14:22:11;6.00;;;1.77;;
22193;SDS011;11262;50.308;9.270;2022-07-17T14:24:37;2.10;;;1.50;;
22193;SDS011;11262;50.308;9.270;2022-07-17T14:27:03;6.30;;;1.90;;
22193;SDS011;11262;50.308;9.270;2022-07-17T14:29:29;4.20;;;1.77;;
22193;SDS011;11262;50.308;9.270;2022-07-17T14:31:54;4.63;;;1.60;;
22193;SDS011;11262;50.308;9.270;2022-07-17T14:34:20;5.07;;;1.70;;
22193;SDS011;11262;50.308;9.270;2022-07-17T14:36:46;4.03;;;1.63;;
22193;SDS011;11262;50.308;9.270;2022-07-17T14:39:12;4.60;;;1.60;;
22193;SDS011;11262;50.308;9.270;2022-07-17T14:41:39;5.53;;;1.70;;
22193;SDS011;11262;50.308;9.270;2022-07-17T14:44:05;5.87;;;1.87;;
22193;SDS011;11262;50.308;9.270;2022-07-17T14:46:30;2.92;;;1.45;;
22193;SDS011;11262;50.308;9.270;2022-07-17T14:48:56;1.92;;;1.50;;
22193;SDS011;11262;50.308;9.270;2022-07-17T14:51:22;4.05;;;1.42;;
22193;SDS011;11262;50.308;9.270;2022-07-17T14:53:48;1.50;;;1.40;;
22193;SDS011;11262;50.308;9.270;2022-07-17T14:56:13;5.18;;;1.50;;
22193;SDS011;11262;50.308;9.270;2022-07-17T14:58:39;5.50;;;1.70;;
22193;SDS011;11262;50.308;9.270;2022-07-17T15:01:05;4.93;;;1.60;;
22193;SDS011;11262;50.308;9.270;2022-07-17T15:03:32;5.00;;;1.60;;